createdAt,value
2019-03-25T07:33:41.531Z,69.87
2019-03-25T07:37:47.602Z,68.52
2019-03-25T07:41:53.674Z,73.80
2019-03-25T07:46:00.750Z,68.65
2019-03-25T07:50:06.936Z,70.12
2019-03-25T07:54:13.044Z,60.90
2019-03-25T07:58:19.240Z,56.60
2019-03-25T08:02:25.354Z,49.40
2019-03-25T08:06:31.498Z,48.10
2019-03-25T08:10:38.035Z,46.70
2019-03-25T08:14:44.139Z,44.18
2019-03-25T08:18:50.366Z,44.90
2019-03-25T08:22:56.429Z,47.75
2019-03-25T08:27:02.663Z,48.23
2019-03-25T08:31:09.006Z,47.20
2019-03-25T08:35:15.117Z,55.55
2019-03-25T08:39:21.421Z,53.92
2019-03-25T08:43:28.354Z,45.43
2019-03-25T08:47:34.600Z,48.92
2019-03-25T08:51:40.692Z,51.20
2019-03-25T08:55:46.819Z,43.10
2019-03-25T08:59:52.884Z,43.28
2019-03-25T09:03:58.989Z,35.70
2019-03-25T09:08:05.096Z,38.50
2019-03-25T09:12:11.301Z,40.23
2019-03-25T09:16:17.417Z,37.50
2019-03-25T09:20:23.880Z,31.37
2019-03-25T09:24:29.977Z,31.60
2019-03-25T09:28:36.408Z,32.90
2019-03-25T09:32:42.494Z,39.05
2019-03-25T09:36:48.822Z,35.92
2019-03-25T09:40:54.920Z,39.50
2019-03-25T09:45:01.436Z,36.17
2019-03-25T09:49:08.637Z,38.48
2019-03-25T09:53:14.745Z,41.40
2019-03-25T09:57:20.830Z,39.78
2019-03-25T10:01:27.267Z,41.73
2019-03-25T10:05:33.391Z,39.88
2019-03-25T10:09:39.569Z,45.65
2019-03-25T10:13:45.701Z,44.40
2019-03-25T10:17:52.398Z,49.67
2019-03-25T10:21:58.480Z,46.75
2019-03-25T10:26:05.765Z,48.33
2019-03-25T10:30:11.899Z,49.18
2019-03-25T10:34:17.965Z,53.45
2019-03-25T10:38:24.089Z,49.08
2019-03-25T10:42:30.253Z,47.45
2019-03-25T10:46:36.458Z,53.92
2019-03-25T10:50:42.581Z,51.10
2019-03-25T10:54:49.085Z,50.60
2019-03-25T10:58:58.280Z,52.33
2019-03-25T11:03:03.630Z,51.08
2019-03-25T11:07:09.713Z,46.10
2019-03-25T11:11:15.858Z,45.55
2019-03-25T11:15:22.161Z,46.65
2019-03-25T11:19:28.281Z,45.00
2019-03-25T11:23:34.390Z,41.18
2019-03-25T11:27:40.547Z,33.95
2019-03-25T11:31:46.990Z,30.97
2019-03-25T11:35:53.158Z,33.67
2019-03-25T11:39:59.271Z,31.07
2019-03-25T11:44:05.396Z,31.12
2019-03-25T11:48:11.874Z,26.80
2019-03-25T11:52:17.995Z,29.75
2019-03-25T11:56:24.299Z,24.25
2019-03-25T12:00:30.465Z,29.52
2019-03-25T12:04:36.788Z,24.50
2019-03-25T12:08:43.079Z,22.07
2019-03-25T12:12:49.600Z,17.17
2019-03-25T12:16:56.233Z,18.50
2019-03-25T12:21:02.329Z,18.55
2019-03-25T12:25:08.920Z,15.30
2019-03-25T12:29:16.143Z,18.65
2019-03-25T12:33:22.590Z,11.60
2019-03-25T12:37:28.669Z,10.82
2019-03-25T12:41:35.209Z,13.90
2019-03-25T12:45:41.295Z,12.03
2019-03-25T12:49:47.423Z,10.93
2019-03-25T12:53:53.664Z,11.73
2019-03-25T12:57:59.760Z,10.03
2019-03-25T13:02:05.924Z,11.28
2019-03-25T13:06:12.023Z,10.40
2019-03-25T13:10:18.191Z,9.35
2019-03-25T13:14:24.277Z,11.00
2019-03-25T13:18:30.399Z,11.55
2019-03-25T13:22:36.703Z,9.88
2019-03-25T13:26:42.753Z,11.15
2019-03-25T13:30:48.841Z,9.38
2019-03-25T13:34:54.968Z,12.60
2019-03-25T13:39:01.053Z,11.10
2019-03-25T13:43:08.910Z,7.53
2019-03-25T13:47:15.193Z,9.28
2019-03-25T13:51:21.331Z,12.18
2019-03-25T13:55:27.431Z,10.78
2019-03-25T13:59:33.529Z,11.03
2019-03-25T14:03:39.615Z,9.30
2019-03-25T14:07:45.741Z,11.12
2019-03-25T14:11:51.781Z,11.18
2019-03-25T14:15:57.881Z,8.45
2019-03-25T14:20:03.974Z,8.50
2019-03-25T14:24:10.376Z,5.42
2019-03-25T14:28:16.445Z,7.03
2019-03-25T14:32:22.781Z,6.30
2019-03-25T14:36:28.839Z,7.00
2019-03-25T14:40:35.594Z,6.08
2019-03-25T14:44:41.767Z,6.90
2019-03-25T14:48:47.919Z,6.03
2019-03-25T14:52:54.006Z,10.05
2019-03-25T14:57:00.072Z,9.83
2019-03-25T15:01:06.844Z,5.92
2019-03-25T15:05:12.929Z,6.50
2019-03-25T15:09:19.038Z,6.33
2019-03-25T15:13:25.165Z,9.15
2019-03-25T15:17:31.236Z,4.47
2019-03-25T15:21:37.557Z,6.03
2019-03-25T15:25:43.776Z,7.78
2019-03-25T15:29:49.877Z,9.05
2019-03-25T15:33:55.972Z,6.12
2019-03-25T15:38:02.063Z,4.78
2019-03-25T15:42:08.214Z,6.85
2019-03-25T15:46:14.342Z,5.58
2019-03-25T15:50:21.002Z,3.30
2019-03-25T15:54:28.424Z,4.80
2019-03-25T15:58:34.557Z,3.90
2019-03-25T16:02:41.019Z,3.37
2019-03-25T16:06:47.094Z,3.50
2019-03-25T16:10:53.481Z,2.33
2019-03-25T16:15:00.689Z,2.33
2019-03-25T16:19:07.410Z,7.70
2019-03-25T16:23:14.459Z,3.72
2019-03-25T16:27:20.733Z,2.70
2019-03-25T16:31:26.803Z,2.98
2019-03-25T16:35:32.977Z,5.22
2019-03-25T16:39:39.040Z,3.65
2019-03-25T16:43:45.131Z,3.37
2019-03-25T16:47:51.230Z,3.87
2019-03-25T16:51:57.338Z,4.37
2019-03-25T16:56:03.535Z,4.50
2019-03-25T17:00:09.874Z,5.97
2019-03-25T17:04:15.976Z,3.33
2019-03-25T17:08:22.146Z,3.72
2019-03-25T17:12:28.247Z,3.65
2019-03-25T17:16:34.632Z,4.42
2019-03-25T17:20:40.771Z,4.30
2019-03-25T17:24:46.867Z,5.00
2019-03-25T17:28:53.167Z,4.60
2019-03-25T17:32:59.271Z,4.80
2019-03-25T17:37:05.373Z,6.67
2019-03-25T17:41:11.527Z,3.87
2019-03-25T17:45:18.629Z,3.95
2019-03-25T17:49:24.803Z,7.87
2019-03-25T17:53:32.025Z,5.37
2019-03-25T17:57:38.145Z,8.03
2019-03-25T18:01:44.380Z,4.83
2019-03-25T18:05:50.546Z,4.90
2019-03-25T18:09:56.666Z,7.70
2019-03-25T18:14:02.772Z,4.75
2019-03-25T18:18:08.894Z,6.80
2019-03-25T18:22:15.034Z,12.55
2019-03-25T18:39:23.490Z,4.12
2019-03-25T18:43:29.912Z,16.85
2019-03-25T18:48:59.914Z,7.92
2019-03-25T18:53:06.235Z,10.93
2019-03-25T18:57:12.524Z,6.35
2019-03-25T19:01:18.804Z,5.33
2019-03-25T19:05:25.946Z,6.75
2019-03-25T19:09:32.174Z,3.98
2019-03-25T19:13:38.429Z,5.17
2019-03-25T19:17:45.906Z,4.20
2019-03-25T19:21:52.115Z,4.33
2019-03-25T19:26:00.050Z,4.40
2019-03-25T19:30:07.165Z,4.97
2019-03-25T19:34:14.050Z,3.95
2019-03-25T19:38:20.385Z,7.35
2019-03-25T19:42:26.886Z,5.30
2019-03-25T19:46:34.322Z,4.67
2019-03-25T19:50:40.815Z,6.72
2019-03-25T19:54:47.222Z,6.40
2019-03-25T19:58:55.152Z,6.12
2019-03-25T20:03:02.048Z,4.80
2019-03-25T20:07:08.459Z,3.58
2019-03-25T20:11:14.902Z,5.15
2019-03-25T20:15:21.651Z,6.25
2019-03-25T20:19:28.197Z,4.40
2019-03-25T20:23:34.713Z,5.47
2019-03-25T20:27:41.588Z,6.33
2019-03-25T20:31:48.777Z,5.97
2019-03-25T20:35:55.531Z,3.25
2019-03-25T20:40:02.041Z,5.15
2019-03-25T20:44:08.611Z,5.10
2019-03-25T20:48:17.963Z,4.33
2019-03-25T20:52:26.256Z,4.37
2019-03-25T20:56:33.815Z,3.75
2019-03-25T21:00:50.866Z,4.00
2019-03-25T21:04:57.397Z,5.95
2019-03-25T21:09:04.003Z,5.40
2019-03-25T21:13:10.458Z,6.60
2019-03-25T21:17:17.085Z,5.47
2019-03-25T21:21:23.867Z,7.30
2019-03-25T21:25:30.266Z,5.78
2019-03-25T21:29:36.826Z,4.65
2019-03-25T21:33:44.241Z,3.05
2019-03-25T21:37:50.541Z,5.20
2019-03-25T21:41:56.957Z,6.50
2019-03-25T21:46:03.321Z,6.72
2019-03-25T21:50:09.792Z,3.67
2019-03-25T21:54:18.487Z,5.97
2019-03-25T21:58:24.759Z,5.58
2019-03-25T22:02:31.055Z,6.72
2019-03-25T22:06:37.893Z,4.62
2019-03-25T22:10:46.632Z,5.22
2019-03-25T22:14:52.885Z,6.08
2019-03-25T22:18:59.202Z,6.97
2019-03-25T22:23:05.554Z,4.45
2019-03-25T22:27:11.998Z,4.80
2019-03-25T22:31:18.179Z,5.53
2019-03-25T22:35:24.478Z,5.62
2019-03-25T22:39:30.770Z,10.63
2019-03-25T22:43:36.953Z,4.50
2019-03-25T22:47:44.397Z,4.35
2019-03-25T22:51:50.656Z,3.92
2019-03-25T22:56:02.350Z,7.00
2019-03-25T23:00:09.030Z,5.65
2019-03-25T23:04:16.682Z,4.17
2019-03-25T23:08:25.150Z,6.25
2019-03-25T23:12:31.954Z,5.87
2019-03-25T23:16:38.204Z,5.08
2019-03-25T23:20:44.669Z,4.80
2019-03-25T23:24:52.212Z,4.42
2019-03-25T23:28:58.425Z,5.80
2019-03-25T23:33:04.966Z,5.40
2019-03-25T23:37:23.579Z,6.42
2019-03-25T23:41:31.054Z,3.77
2019-03-25T23:45:37.282Z,4.75
2019-03-25T23:49:44.843Z,5.05
2019-03-25T23:53:54.425Z,5.20
2019-03-25T23:58:01.938Z,5.42
